Cap Theodora — SVAM5 — position and weather

sailwx.info

Track history (hours):
 
Tides and Currents Weather Stations Pressure Air Temp Water Temp Dewpoint Dewpoint Depression Visibility Wind Speed Wind Dir Waves Ship Positions

Cap Theodora

Last reported at 2014-May-17 08:12 UTC. Time now 2014-Jul-25 01:39 UTC.
Position N 43°00' W 009°57'.
Warning: this ship's position is months out of date.

Length 274 m; draft 15.5 m.

Type: Tanker. MMSI: 240840000.

Date/timePositionNaut miles runAvg speedWind from/ knotsBaromVisibWave heightAir tempDewpointWater temp
2014-May-17 08:12N 43°00' W 009°57'15 7.1
2014-May-17 06:03N 42°45' W 009°57'3 4.1
2014-May-17 05:26N 42°43' W 009°57'5 4.5
2014-May-17 04:23N 42°38' W 009°57'4 4.4
2014-May-17 03:29N 42°34' W 009°57'9 4.7
2014-May-17 01:30N 42°25' W 009°57'6 4.9
2014-May-17 00:15N 42°19' W 009°57'3 4.8
2014-May-16 23:33N 42°15' W 009°57'5 4.7
2014-May-16 22:33N 42°11' W 009°57'6 4.3
2014-May-16 21:03N 42°04' W 009°57'2 4.3
2014-May-16 20:33N 42°02' W 009°57'4 4.2
2014-May-16 19:30N 41°58' W 009°57'5 4.5
2014-May-16 18:30N 41°53' W 009°57'156 5.8
2014-May-15 15:23N 39°17' W 009°57'26 4.3
2014-May-15 09:12N 38°50' W 009°57'6 6.0
2014-May-15 08:07N 38°44' W 009°57'812.6
2014-May-15 07:28N 38°36' W 009°55'7 7.9
2014-May-15 06:33N 38°29' W 009°52'6 5.5
2014-May-15 05:33N 38°24' W 009°51'5 5.3
2014-May-15 04:33N 38°18' W 009°49'5 5.1
2014-May-15 03:33N 38°14' W 009°48'5 5.0
2014-May-15 02:33N 38°09' W 009°46'5 4.9
2014-May-15 01:33N 38°04' W 009°45'5 5.1
2014-May-15 00:33N 37°59' W 009°44'5 5.0
2014-May-14 23:33N 37°54' W 009°43'5 5.4
2014-May-14 22:33N 37°49' W 009°41'6 5.6
2014-May-14 21:33N 37°43' W 009°39'5 5.4
2014-May-14 20:33N 37°38' W 009°38'5 5.2
2014-May-14 19:33N 37°33' W 009°36'5 5.2
2014-May-14 18:33N 37°28' W 009°34'53 5.8
2014-May-14 09:30N 36°40' W 009°07'6 6.1
2014-May-14 08:33N 36°38' W 009°00'21 9.4
2014-May-14 06:19N 36°32' W 008°35'5 6.4
2014-May-14 05:33N 36°31' W 008°29'7 6.4
2014-May-14 04:29N 36°29' W 008°21'6 6.4
2014-May-14 03:33N 36°27' W 008°14'7 6.3
2014-May-14 02:28N 36°25' W 008°06'5 6.1
2014-May-14 01:33N 36°23' W 007°60'6 6.0
2014-May-14 00:33N 36°22' W 007°52'6 5.9
2014-May-13 23:33N 36°20' W 007°45'6 5.6
2014-May-13 22:32N 36°19' W 007°39'7 5.5
2014-May-13 21:13N 36°16' W 007°30'5 5.4
2014-May-13 20:19N 36°15' W 007°24'14 5.1
2014-May-13 17:33N 36°11' W 007°08'53 5.3
2014-May-13 07:27N 35°58' W 006°04'6 6.2
2014-May-13 06:24N 35°58' W 005°56'5 5.7
2014-May-13 05:33N 35°58' W 005°50'5 4.9
2014-May-13 04:33N 35°58' W 005°44'4 3.9
2014-May-13 03:33N 35°58' W 005°39'8 8.5
2014-May-13 02:34N 35°60' W 005°29'1111.1
2014-May-13 01:34N 36°03' W 005°16'5 5.4
2014-May-13 00:33N 36°04' W 005°09'6 5.6
2014-May-12 23:33N 36°05' W 005°02'6 6.4
2014-May-12 22:32N 36°05' W 004°54'129 6.7
2014-May-12 03:14N 36°12' W 002°14'  
2014-May-09 00:22N 36°02' W 005°07'911.6
2014-May-08 23:33N 35°60' W 005°18'1211.9
2014-May-08 22:33N 35°56' W 005°32'1111.4
2014-May-08 21:33N 35°55' W 005°46'6911.1
2014-May-08 15:20N 35°54' W 007°12'911.1
2014-May-08 14:33N 35°54' W 007°22'7510.8
2014-May-08 07:33N 35°56' W 008°55'1412.4
2014-May-08 06:27N 35°57' W 009°12'1011.0
2014-May-08 05:33N 35°59' W 009°24'1110.8
2014-May-08 04:33N 35°60' W 009°38'  
Track history (hours):
 
Tides and Currents Weather Stations Pressure Air Temp Water Temp Dewpoint Dewpoint Depression Visibility Wind Speed Wind Dir Waves Ship Positions

Cap Theodora

Last reported at 2014-May-17 08:12 UTC. Time now 2014-Jul-25 01:39 UTC.
Position N 43°00' W 009°57'.
Warning: this ship's position is months out of date.

Length 274 m; draft 15.5 m.

Type: Tanker. MMSI: 240840000.

Date/timePositionNaut miles runAvg speedWind from/ knotsBaromVisibWave heightAir tempDewpointWater temp
2014-May-17 08:12N 43°00' W 009°57'15 7.1
2014-May-17 06:03N 42°45' W 009°57'3 4.1
2014-May-17 05:26N 42°43' W 009°57'5 4.5
2014-May-17 04:23N 42°38' W 009°57'4 4.4
2014-May-17 03:29N 42°34' W 009°57'9 4.7
2014-May-17 01:30N 42°25' W 009°57'6 4.9
2014-May-17 00:15N 42°19' W 009°57'3 4.8
2014-May-16 23:33N 42°15' W 009°57'5 4.7
2014-May-16 22:33N 42°11' W 009°57'6 4.3
2014-May-16 21:03N 42°04' W 009°57'2 4.3
2014-May-16 20:33N 42°02' W 009°57'4 4.2
2014-May-16 19:30N 41°58' W 009°57'5 4.5
2014-May-16 18:30N 41°53' W 009°57'156 5.8
2014-May-15 15:23N 39°17' W 009°57'26 4.3
2014-May-15 09:12N 38°50' W 009°57'6 6.0
2014-May-15 08:07N 38°44' W 009°57'812.6
2014-May-15 07:28N 38°36' W 009°55'7 7.9
2014-May-15 06:33N 38°29' W 009°52'6 5.5
2014-May-15 05:33N 38°24' W 009°51'5 5.3
2014-May-15 04:33N 38°18' W 009°49'5 5.1
2014-May-15 03:33N 38°14' W 009°48'5 5.0
2014-May-15 02:33N 38°09' W 009°46'5 4.9
2014-May-15 01:33N 38°04' W 009°45'5 5.1
2014-May-15 00:33N 37°59' W 009°44'5 5.0
2014-May-14 23:33N 37°54' W 009°43'5 5.4
2014-May-14 22:33N 37°49' W 009°41'6 5.6
2014-May-14 21:33N 37°43' W 009°39'5 5.4
2014-May-14 20:33N 37°38' W 009°38'5 5.2
2014-May-14 19:33N 37°33' W 009°36'5 5.2
2014-May-14 18:33N 37°28' W 009°34'53 5.8
2014-May-14 09:30N 36°40' W 009°07'6 6.1
2014-May-14 08:33N 36°38' W 009°00'21 9.4
2014-May-14 06:19N 36°32' W 008°35'5 6.4
2014-May-14 05:33N 36°31' W 008°29'7 6.4
2014-May-14 04:29N 36°29' W 008°21'6 6.4
2014-May-14 03:33N 36°27' W 008°14'7 6.3
2014-May-14 02:28N 36°25' W 008°06'5 6.1
2014-May-14 01:33N 36°23' W 007°60'6 6.0
2014-May-14 00:33N 36°22' W 007°52'6 5.9
2014-May-13 23:33N 36°20' W 007°45'6 5.6
2014-May-13 22:32N 36°19' W 007°39'7 5.5
2014-May-13 21:13N 36°16' W 007°30'5 5.4
2014-May-13 20:19N 36°15' W 007°24'14 5.1
2014-May-13 17:33N 36°11' W 007°08'53 5.3
2014-May-13 07:27N 35°58' W 006°04'6 6.2
2014-May-13 06:24N 35°58' W 005°56'5 5.7
2014-May-13 05:33N 35°58' W 005°50'5 4.9
2014-May-13 04:33N 35°58' W 005°44'4 3.9
2014-May-13 03:33N 35°58' W 005°39'8 8.5
2014-May-13 02:34N 35°60' W 005°29'1111.1
2014-May-13 01:34N 36°03' W 005°16'5 5.4
2014-May-13 00:33N 36°04' W 005°09'6 5.6
2014-May-12 23:33N 36°05' W 005°02'6 6.4
2014-May-12 22:32N 36°05' W 004°54'129 6.7
2014-May-12 03:14N 36°12' W 002°14'  
2014-May-09 00:22N 36°02' W 005°07'911.6
2014-May-08 23:33N 35°60' W 005°18'1211.9
2014-May-08 22:33N 35°56' W 005°32'1111.4
2014-May-08 21:33N 35°55' W 005°46'6911.1
2014-May-08 15:20N 35°54' W 007°12'911.1
2014-May-08 14:33N 35°54' W 007°22'7510.8
2014-May-08 07:33N 35°56' W 008°55'1412.4
2014-May-08 06:27N 35°57' W 009°12'1011.0
2014-May-08 05:33N 35°59' W 009°24'1110.8
2014-May-08 04:33N 35°60' W 009°38'  

Dump ship's entire track history